createdAt,value
2019-01-11T00:00:11.550Z,545.9
2019-01-11T00:01:13.995Z,546
2019-01-11T00:02:16.161Z,545.9
2019-01-11T00:03:18.318Z,547
2019-01-11T00:04:20.747Z,546.7
2019-01-11T00:05:22.882Z,546.7
2019-01-11T00:06:25.315Z,546.8
2019-01-11T00:07:27.466Z,546.4
2019-01-11T00:08:29.884Z,547
2019-01-11T00:09:32.046Z,546.8
2019-01-11T00:10:34.466Z,547
2019-01-11T00:11:36.894Z,547
2019-01-11T00:12:39.311Z,546.8
2019-01-11T00:13:41.741Z,546.5
2019-01-11T00:14:44.185Z,546.5
2019-01-11T00:15:46.606Z,546.8
2019-01-11T00:16:49.021Z,546.6
2019-01-11T00:17:52.781Z,546.5
2019-01-11T00:18:55.204Z,546.4
2019-01-11T00:21:03.250Z,546.6
2019-01-11T00:22:05.666Z,546.7
2019-01-11T00:23:08.095Z,546.1
2019-01-11T00:24:10.246Z,546.2
2019-01-11T00:25:12.374Z,546.2
2019-01-11T00:26:14.805Z,546.7
2019-01-11T00:27:17.235Z,546.7
2019-01-11T00:28:19.674Z,546.5
2019-01-11T00:29:22.095Z,546.1
2019-01-11T00:30:24.521Z,546.3
2019-01-11T00:31:26.665Z,546.2
2019-01-11T00:32:29.090Z,545.9
2019-01-11T00:33:31.238Z,545.8
2019-01-11T00:34:33.651Z,545.6
2019-01-11T00:35:36.070Z,545.3
2019-01-11T00:36:38.236Z,545.5
2019-01-11T00:37:39.861Z,545.9
2019-01-11T00:38:42.282Z,545.5
2019-01-11T00:39:44.700Z,545.4
2019-01-11T00:40:47.126Z,545.5
2019-01-11T00:41:49.550Z,545.7
2019-01-11T00:42:51.985Z,545.9
2019-01-11T00:43:54.136Z,545.9
2019-01-11T00:44:56.290Z,545.4
2019-01-11T00:45:58.736Z,545.6
2019-01-11T00:47:01.160Z,545.8
2019-01-11T00:48:03.352Z,545.8
2019-01-11T00:49:05.777Z,546
2019-01-11T00:50:07.646Z,545.9
2019-01-11T00:51:09.802Z,545.8
2019-01-11T00:52:12.231Z,545.5
2019-01-11T00:53:14.396Z,546
2019-01-11T00:54:16.265Z,545.8
2019-01-11T00:55:18.686Z,545.7
2019-01-11T00:56:21.105Z,546
2019-01-11T00:57:23.546Z,545.9
2019-01-11T00:58:25.719Z,545.9
2019-01-11T00:59:28.156Z,545.9
2019-01-11T01:00:30.586Z,546
2019-01-11T01:01:32.736Z,546.5
2019-01-11T01:02:34.645Z,546.5
2019-01-11T01:03:37.064Z,546.6
2019-01-11T01:04:38.667Z,546.5
2019-01-11T01:05:41.084Z,546.1
2019-01-11T01:06:43.236Z,546.3
2019-01-11T01:07:45.092Z,546.4
2019-01-11T01:08:47.515Z,546.3
2019-01-11T01:09:49.676Z,546.1
2019-01-11T01:10:51.543Z,546.4
2019-01-11T01:11:53.976Z,546.2
2019-01-11T01:12:56.396Z,546
2019-01-11T01:13:58.816Z,546.3
2019-01-11T01:15:01.247Z,546.3
2019-01-11T01:16:03.681Z,545.8
2019-01-11T01:17:06.112Z,545.7
2019-01-11T01:18:08.538Z,545.6
2019-01-11T01:19:10.690Z,545.9
2019-01-11T01:20:13.122Z,545.7
2019-01-11T01:21:15.272Z,545.6
2019-01-11T01:22:17.427Z,545.3
2019-01-11T01:23:19.604Z,544.8
2019-01-11T01:24:22.043Z,545.5
2019-01-11T01:25:24.484Z,545.5
2019-01-11T01:26:26.895Z,545.2
2019-01-11T01:27:29.336Z,545.1
2019-01-11T01:28:31.780Z,544.7
2019-01-11T01:29:34.220Z,545
2019-01-11T01:30:36.638Z,544.9
2019-01-11T01:31:39.054Z,544.7
2019-01-11T01:32:41.475Z,544.3
2019-01-11T01:33:43.905Z,544.2
2019-01-11T01:34:46.326Z,544
2019-01-11T01:35:48.472Z,544.1
2019-01-11T01:36:50.893Z,543.7
2019-01-11T01:37:53.326Z,543.1
2019-01-11T01:38:55.487Z,542.6
2019-01-11T01:39:57.967Z,542.8
2019-01-11T01:41:00.105Z,542.9
2019-01-11T01:42:02.526Z,543.2
2019-01-11T01:43:04.954Z,542.4
2019-01-11T01:44:07.408Z,542.9
2019-01-11T01:45:09.594Z,543
2019-01-11T01:46:12.029Z,542.9
2019-01-11T01:47:14.466Z,543.2
2019-01-11T01:48:16.907Z,542.7
2019-01-11T01:49:19.052Z,542.7
2019-01-11T01:50:21.475Z,543
2019-01-11T01:51:23.636Z,543
2019-01-11T01:52:25.789Z,543
2019-01-11T01:53:28.212Z,543.1
2019-01-11T01:54:30.632Z,542.6
2019-01-11T01:55:33.060Z,542.7
2019-01-11T01:56:35.476Z,542.9
2019-01-11T01:57:37.902Z,542.8
2019-01-11T01:58:40.341Z,542.6
2019-01-11T01:59:42.487Z,542.6
2019-01-11T02:00:44.622Z,542.5
2019-01-11T02:01:47.062Z,542.4
2019-01-11T02:02:49.509Z,542.6
2019-01-11T02:03:51.934Z,542.1
2019-01-11T02:04:54.376Z,542.4
2019-01-11T02:05:56.800Z,542.7
2019-01-11T02:06:59.256Z,542.3
2019-01-11T02:08:01.684Z,542.4
2019-01-11T02:09:03.842Z,541.8
2019-01-11T02:10:06.274Z,541.7
2019-01-11T02:11:08.687Z,541.5
2019-01-11T02:12:11.114Z,542
2019-01-11T02:13:13.536Z,542
2019-01-11T02:14:15.962Z,541.9
2019-01-11T02:15:18.381Z,541.3
2019-01-11T02:16:20.816Z,541.5
2019-01-11T02:17:22.980Z,541.2
2019-01-11T02:18:25.147Z,541.6
2019-01-11T02:20:33.226Z,541.1
2019-01-11T02:21:35.646Z,541.3
2019-01-11T02:22:37.810Z,541.5
2019-01-11T02:23:39.954Z,541.4
2019-01-11T02:24:42.387Z,541.3
2019-01-11T02:26:49.786Z,541.2
2019-01-11T02:27:52.206Z,541.5
2019-01-11T02:28:54.644Z,541.5
2019-01-11T02:29:56.520Z,541.8
2019-01-11T02:30:58.952Z,541.5
2019-01-11T02:32:00.569Z,541.4
2019-01-11T02:33:03.008Z,541.7
2019-01-11T02:34:05.166Z,542
2019-01-11T02:35:07.032Z,542.2
2019-01-11T02:36:09.190Z,542
2019-01-11T02:37:11.337Z,542.2
2019-01-11T02:38:13.780Z,542.2
2019-01-11T02:39:16.228Z,542.2
2019-01-11T02:40:18.688Z,542.1
2019-01-11T02:41:21.105Z,542.1
2019-01-11T02:42:22.998Z,542.6
2019-01-11T02:43:25.468Z,542.3
2019-01-11T02:44:27.665Z,542.3
2019-01-11T02:45:30.094Z,542.6
2019-01-11T02:46:31.974Z,542.5
2019-01-11T02:47:34.394Z,542.5
2019-01-11T02:48:36.566Z,542.9
2019-01-11T02:50:43.967Z,543.6
2019-01-11T02:51:46.391Z,543.9
2019-01-11T02:52:48.811Z,543.4
2019-01-11T02:53:51.242Z,543.5
2019-01-11T02:54:53.672Z,543.3
2019-01-11T02:55:55.552Z,543.6
2019-01-11T02:56:57.705Z,543.6
2019-01-11T02:57:59.868Z,543.7
2019-01-11T02:59:03.624Z,543.7
2019-01-11T03:00:06.054Z,543.8
2019-01-11T03:01:08.478Z,543.9
2019-01-11T03:02:10.646Z,543.9
2019-01-11T03:03:13.082Z,543.9
2019-01-11T03:04:15.230Z,543.9
2019-01-11T03:05:17.366Z,544.3
2019-01-11T03:06:19.793Z,544.6
2019-01-11T03:07:21.390Z,544.7
2019-01-11T03:08:23.812Z,545.1
2019-01-11T03:09:26.234Z,545
2019-01-11T03:10:28.666Z,544.9
2019-01-11T03:11:30.805Z,544.7
2019-01-11T03:12:32.951Z,545.1
2019-01-11T03:13:35.382Z,544.9
2019-01-11T03:14:37.554Z,545
2019-01-11T03:15:39.724Z,545.4
2019-01-11T03:16:42.144Z,545.1
2019-01-11T03:17:44.586Z,544.9
2019-01-11T03:18:47.003Z,544.7
2019-01-11T03:19:49.993Z,545
2019-01-11T03:20:52.166Z,545.2
2019-01-11T03:21:54.592Z,545.6
2019-01-11T03:22:57.006Z,545.5
2019-01-11T03:23:59.424Z,545.6
2019-01-11T03:25:01.873Z,545.5
2019-01-11T03:26:04.292Z,545.5
2019-01-11T03:27:06.713Z,545.6
2019-01-11T03:28:08.885Z,545.7
2019-01-11T03:29:11.314Z,545.6
2019-01-11T03:30:13.770Z,545.2
2019-01-11T03:31:15.913Z,545.2
2019-01-11T03:32:18.341Z,545.3
2019-01-11T03:33:20.758Z,545.3
2019-01-11T03:34:23.191Z,545.3
2019-01-11T03:35:25.405Z,545.3
2019-01-11T03:36:27.824Z,545
2019-01-11T03:37:30.263Z,544.7
2019-01-11T03:38:32.684Z,545.1
2019-01-11T03:39:34.843Z,545
2019-01-11T03:40:36.468Z,544.8
2019-01-11T03:41:38.608Z,544.6
2019-01-11T03:42:41.032Z,544.4
2019-01-11T03:43:43.456Z,544.5
2019-01-11T03:44:45.606Z,544.6
2019-01-11T03:45:48.033Z,544.7
2019-01-11T03:46:49.938Z,544.6
2019-01-11T03:47:52.067Z,544.5
2019-01-11T03:48:54.498Z,544.3
2019-01-11T03:49:57.156Z,544.3
2019-01-11T03:50:59.571Z,544.5
2019-01-11T03:52:01.735Z,544.5
2019-01-11T03:53:03.661Z,544.3
2019-01-11T03:54:05.514Z,544
2019-01-11T03:55:07.971Z,543.9
2019-01-11T03:56:10.404Z,544.1
2019-01-11T03:57:12.834Z,543.9
2019-01-11T03:58:14.972Z,543.6
2019-01-11T03:59:17.114Z,543.8
2019-01-11T04:00:19.262Z,543.6
2019-01-11T04:01:21.686Z,543.4
2019-01-11T04:02:23.830Z,543.7
2019-01-11T04:03:25.981Z,543.3
2019-01-11T04:04:28.407Z,543.2
2019-01-11T04:05:30.565Z,543.4
2019-01-11T04:06:32.982Z,543.9
2019-01-11T04:07:35.416Z,543.3
2019-01-11T04:08:37.856Z,543.1
2019-01-11T04:09:40.272Z,543.2
2019-01-11T04:10:42.440Z,543.1
2019-01-11T04:11:44.866Z,543.4
2019-01-11T04:12:47.022Z,543.7
2019-01-11T04:13:49.150Z,543.5
2019-01-11T04:14:51.586Z,543.3
2019-01-11T04:15:54.019Z,543.7
2019-01-11T04:16:56.442Z,543.5
2019-01-11T04:17:58.866Z,544
2019-01-11T04:19:00.735Z,543.5
2019-01-11T04:20:04.056Z,543.8
2019-01-11T04:21:06.224Z,543.2
2019-01-11T04:22:08.694Z,543.2
2019-01-11T04:23:10.852Z,543.4
2019-01-11T04:24:13.272Z,543.5
2019-01-11T04:25:15.437Z,543.3
2019-01-11T04:26:17.855Z,543.2
2019-01-11T04:27:20.001Z,543.2
2019-01-11T04:28:21.877Z,543
2019-01-11T04:29:24.311Z,542.9
2019-01-11T04:30:26.767Z,543.1
2019-01-11T04:31:29.187Z,543.2
2019-01-11T04:32:31.618Z,542.9
2019-01-11T04:33:34.043Z,542.8
2019-01-11T04:34:35.954Z,542.7
2019-01-11T04:35:38.140Z,542.9
2019-01-11T04:36:40.291Z,542.8
2019-01-11T04:37:42.464Z,542.8
2019-01-11T04:38:44.634Z,543.2
2019-01-11T04:39:47.084Z,542.8
2019-01-11T04:40:49.516Z,542.8
2019-01-11T04:41:51.675Z,542.6
2019-01-11T04:42:54.108Z,542.6
2019-01-11T04:43:56.533Z,542.4
2019-01-11T04:44:58.704Z,543
2019-01-11T04:46:01.137Z,543
2019-01-11T04:47:03.290Z,542.6
2019-01-11T04:48:05.428Z,542.4
2019-01-11T04:49:07.862Z,542.9
2019-01-11T04:50:11.519Z,542.2
2019-01-11T04:51:13.934Z,542.5
2019-01-11T04:52:16.093Z,542.6
2019-01-11T04:53:18.516Z,543
2019-01-11T04:54:20.712Z,542.4
2019-01-11T04:55:22.596Z,542.5
2019-01-11T04:56:24.463Z,542.7
2019-01-11T04:57:26.887Z,542.9
2019-01-11T04:58:29.321Z,542.7
2019-01-11T04:59:31.763Z,542.8
2019-01-11T05:00:33.905Z,542.7
2019-01-11T05:01:36.344Z,542.6
2019-01-11T05:02:38.502Z,542.4
2019-01-11T05:03:40.627Z,542.9
2019-01-11T05:04:42.786Z,542.8
2019-01-11T05:05:44.675Z,543.1
2019-01-11T05:06:47.104Z,543.3
2019-01-11T05:07:49.260Z,542.7
2019-01-11T05:08:51.412Z,543.3
2019-01-11T05:09:53.572Z,542.9
2019-01-11T05:10:55.727Z,543
2019-01-11T05:11:58.143Z,543.5
2019-01-11T05:13:00.305Z,543.4
2019-01-11T05:14:02.453Z,543.4
2019-01-11T05:15:04.619Z,543.3
2019-01-11T05:16:07.034Z,542.8
2019-01-11T05:17:09.464Z,543.3
2019-01-11T05:18:11.884Z,543.2
2019-01-11T05:19:14.316Z,543.1
2019-01-11T05:20:18.839Z,543.1
2019-01-11T05:21:21.279Z,543.1
2019-01-11T05:22:23.422Z,542.6
2019-01-11T05:23:25.853Z,542.5
2019-01-11T05:24:28.275Z,542.5
2019-01-11T05:25:30.721Z,542.5
2019-01-11T05:26:32.633Z,542.8
2019-01-11T05:27:35.083Z,542.7
2019-01-11T05:28:37.531Z,542.7
2019-01-11T05:29:39.963Z,542.9
2019-01-11T05:30:42.387Z,542.8
2019-01-11T05:31:44.815Z,542.7
2019-01-11T05:32:47.261Z,542.8
2019-01-11T05:33:49.726Z,542.6
2019-01-11T05:34:51.884Z,542.6
2019-01-11T05:35:54.301Z,542.4
2019-01-11T05:36:56.735Z,542.7
2019-01-11T05:37:58.901Z,542.3
2019-01-11T05:39:01.338Z,542.3
2019-01-11T05:40:03.773Z,542.3
2019-01-11T05:41:05.649Z,542.3
2019-01-11T05:42:08.087Z,542.4
2019-01-11T05:43:10.231Z,542.5
2019-01-11T05:44:12.679Z,542.4
2019-01-11T05:45:14.303Z,542.2
2019-01-11T05:46:16.191Z,542.6
2019-01-11T05:47:18.388Z,542.4
2019-01-11T05:48:20.833Z,542.5
2019-01-11T05:49:22.695Z,542.3
2019-01-11T05:50:26.094Z,542.7
2019-01-11T05:51:27.972Z,542.9
2019-01-11T05:52:30.396Z,542.5
2019-01-11T05:53:32.821Z,542.8
2019-01-11T05:54:34.967Z,542.5
2019-01-11T05:55:37.111Z,542.6
2019-01-11T05:56:39.260Z,542.7
2019-01-11T05:57:41.421Z,542.9
2019-01-11T05:58:43.858Z,542.9
2019-01-11T05:59:46.291Z,542.7
2019-01-11T06:00:48.715Z,542.9
2019-01-11T06:01:51.137Z,542.8
2019-01-11T06:02:53.277Z,542.7
2019-01-11T06:03:56.804Z,542.6
2019-01-11T06:04:59.316Z,542.6
2019-01-11T06:06:01.470Z,542.4
2019-01-11T06:07:03.895Z,542.5
2019-01-11T06:08:06.328Z,542.5
2019-01-11T06:09:08.778Z,542.3
2019-01-11T06:10:11.200Z,542.3
2019-01-11T06:11:13.630Z,542.1
2019-01-11T06:12:16.041Z,542.4
2019-01-11T06:13:18.201Z,542.4
2019-01-11T06:14:20.321Z,542.1
2019-01-11T06:15:22.807Z,542.6
2019-01-11T06:16:24.964Z,542.3
2019-01-11T06:17:27.131Z,542.4
2019-01-11T06:18:29.291Z,542.1
2019-01-11T06:19:31.446Z,542.3
2019-01-11T06:20:33.027Z,541.7
2019-01-11T06:21:35.451Z,542.1
2019-01-11T06:22:37.880Z,542
2019-01-11T06:23:40.323Z,541.9
2019-01-11T06:24:42.761Z,541.7
2019-01-11T06:25:45.183Z,541.9
2019-01-11T06:26:47.346Z,542.1
2019-01-11T06:27:49.781Z,541.7
2019-01-11T06:28:51.659Z,542
2019-01-11T06:29:54.078Z,542.1
2019-01-11T06:30:56.518Z,541.9
2019-01-11T06:31:58.669Z,542.6
2019-01-11T06:33:01.095Z,542.5
2019-01-11T06:34:03.526Z,542.4
2019-01-11T06:35:05.675Z,542.2
2019-01-11T06:36:07.834Z,542.3
2019-01-11T06:37:10.264Z,542.5
2019-01-11T06:38:12.696Z,542.5
2019-01-11T06:39:16.338Z,542.6
2019-01-11T06:40:18.794Z,542.7
2019-01-11T06:41:20.935Z,542.3
2019-01-11T06:42:22.816Z,542.5
2019-01-11T06:43:25.273Z,542.5
2019-01-11T06:44:28.755Z,542.7
2019-01-11T06:45:31.237Z,542.7
2019-01-11T06:46:33.659Z,542.6
2019-01-11T06:47:36.093Z,542.4
2019-01-11T06:48:38.255Z,542.4
2019-01-11T06:49:40.678Z,542.5
2019-01-11T06:50:43.101Z,542.4
2019-01-11T06:51:45.532Z,542.3
2019-01-11T06:52:47.688Z,542.2
2019-01-11T06:53:49.835Z,542
2019-01-11T06:54:51.995Z,541.9
2019-01-11T06:55:54.431Z,541.5
2019-01-11T06:56:56.852Z,541.5
2019-01-11T06:57:59.015Z,541.3
2019-01-11T06:59:01.447Z,541.5
2019-01-11T07:00:03.951Z,541.8
2019-01-11T07:01:06.111Z,541.5
2019-01-11T07:02:08.545Z,541.4
2019-01-11T07:03:10.975Z,541.7
2019-01-11T07:04:13.398Z,541.4
2019-01-11T07:05:15.825Z,541.6
2019-01-11T07:06:17.998Z,541.9
2019-01-11T07:07:20.427Z,541.5
2019-01-11T07:08:22.575Z,541.3
2019-01-11T07:09:25.011Z,541.5
2019-01-11T07:10:27.165Z,541.5
2019-01-11T07:11:29.584Z,541.8
2019-01-11T07:12:32.019Z,541.2
2019-01-11T07:13:34.195Z,541.5
2019-01-11T07:14:36.631Z,541.7
2019-01-11T07:15:39.059Z,541.3
2019-01-11T07:16:41.215Z,541.4
2019-01-11T07:17:43.654Z,541.2
2019-01-11T07:18:46.114Z,541.2
2019-01-11T07:19:48.567Z,541.4
2019-01-11T07:20:50.984Z,540.8
2019-01-11T07:21:53.413Z,541.3
2019-01-11T07:22:55.299Z,541
2019-01-11T07:23:57.751Z,540.7
2019-01-11T07:24:59.939Z,540.8
2019-01-11T07:26:02.365Z,540.7
2019-01-11T07:27:04.799Z,540.6
2019-01-11T07:28:13.500Z,540.5
2019-01-11T07:29:14.144Z,540.8
2019-01-11T07:30:16.294Z,540.1
2019-01-11T07:31:18.721Z,540.4
2019-01-11T07:32:21.150Z,540.4
2019-01-11T07:33:23.565Z,540
2019-01-11T07:34:25.707Z,540.7
2019-01-11T07:35:27.839Z,540.8
2019-01-11T07:36:29.971Z,541.1
2019-01-11T07:37:32.435Z,540.7
2019-01-11T07:38:34.865Z,541
2019-01-11T07:39:37.031Z,540.8
2019-01-11T07:40:39.461Z,541.3
2019-01-11T07:41:41.884Z,541
2019-01-11T07:42:44.029Z,540.8
2019-01-11T07:43:46.464Z,540.9
2019-01-11T07:44:48.902Z,541.1
2019-01-11T07:45:51.325Z,540.9
2019-01-11T07:46:53.746Z,541.2
2019-01-11T07:47:56.165Z,541
2019-01-11T07:48:58.599Z,541.1
2019-01-11T07:50:01.072Z,541.4
2019-01-11T07:51:03.255Z,541
2019-01-11T07:52:05.431Z,541.4
2019-01-11T07:53:07.850Z,541
2019-01-11T07:54:10.000Z,541.3
2019-01-11T07:55:12.436Z,541.1
2019-01-11T07:56:14.868Z,541
2019-01-11T07:57:17.308Z,541.3
2019-01-11T07:58:19.746Z,541
2019-01-11T07:59:21.908Z,540.8
2019-01-11T08:00:24.333Z,541.1
2019-01-11T08:01:26.478Z,541.3
2019-01-11T08:02:28.665Z,540.8
2019-01-11T08:03:30.847Z,540.8
2019-01-11T08:04:33.276Z,540.9
2019-01-11T08:05:35.716Z,540.8
2019-01-11T08:06:38.143Z,540.8
2019-01-11T08:07:40.574Z,540.6
2019-01-11T08:08:42.991Z,540.6
2019-01-11T08:09:45.145Z,540.8
2019-01-11T08:10:47.042Z,540.5
2019-01-11T08:11:49.472Z,540.6
2019-01-11T08:12:51.902Z,540.5
2019-01-11T08:13:54.056Z,540.6
2019-01-11T08:14:56.482Z,540.3
2019-01-11T08:15:58.388Z,540.4
2019-01-11T08:17:00.546Z,540.4
2019-01-11T08:18:02.958Z,540.1
2019-01-11T08:19:05.112Z,540.2
2019-01-11T08:20:07.543Z,540
2019-01-11T08:21:09.978Z,540
2019-01-11T08:22:12.326Z,539.9
2019-01-11T08:23:14.742Z,539.9
2019-01-11T08:24:18.816Z,539.9
2019-01-11T08:25:21.260Z,540.3
2019-01-11T08:26:23.667Z,540.3
2019-01-11T08:27:25.819Z,540.4
2019-01-11T08:28:27.951Z,539.9
2019-01-11T08:29:29.835Z,540.1
2019-01-11T08:30:32.264Z,540.1
2019-01-11T08:31:36.783Z,540.1
2019-01-11T08:32:38.927Z,539.9
2019-01-11T08:33:41.365Z,540.2
2019-01-11T08:34:43.220Z,539.7
2019-01-11T08:35:45.351Z,539.9
2019-01-11T08:36:47.774Z,540
2019-01-11T08:37:49.947Z,540
2019-01-11T08:38:52.099Z,540.1
2019-01-11T08:39:54.527Z,540.3
2019-01-11T08:40:56.723Z,540.6
2019-01-11T08:41:59.191Z,540.6
2019-01-11T08:43:01.628Z,540
2019-01-11T08:44:04.057Z,540
2019-01-11T08:45:06.194Z,540.2
2019-01-11T08:46:08.658Z,540.2
2019-01-11T08:47:11.084Z,540
2019-01-11T08:48:13.508Z,540.1
2019-01-11T08:49:15.932Z,540.4
2019-01-11T08:50:18.366Z,540.2
2019-01-11T08:51:20.811Z,540.7
2019-01-11T08:52:23.224Z,540.6
2019-01-11T08:53:25.665Z,540.4
2019-01-11T08:54:27.813Z,540.6
2019-01-11T08:55:29.953Z,540.3
2019-01-11T08:56:32.375Z,540.2
2019-01-11T08:57:34.822Z,540.1
2019-01-11T08:58:37.254Z,540.2
2019-01-11T08:59:39.688Z,539.9
2019-01-11T09:00:41.557Z,539.9
2019-01-11T09:01:43.994Z,539.9
2019-01-11T09:02:46.433Z,539.9
2019-01-11T09:03:48.591Z,539.7
2019-01-11T09:04:50.762Z,539.6
2019-01-11T09:05:53.202Z,539.9
2019-01-11T09:06:55.344Z,539.7
2019-01-11T09:07:57.775Z,539.7
2019-01-11T09:08:59.704Z,540
2019-01-11T09:10:01.596Z,539.8
2019-01-11T09:11:03.734Z,539.7
2019-01-11T09:12:06.162Z,539.7
2019-01-11T09:13:08.619Z,539.4
2019-01-11T09:14:11.044Z,539.5
2019-01-11T09:15:13.464Z,539.4
2019-01-11T09:17:20.879Z,538.9
2019-01-11T09:18:23.056Z,539.2
2019-01-11T09:19:25.507Z,539.4
2019-01-11T09:20:27.654Z,539.7
2019-01-11T09:21:30.086Z,539.9
2019-01-11T09:22:32.513Z,539.7
2019-01-11T09:23:34.686Z,539.5
2019-01-11T09:24:37.115Z,539.6
2019-01-11T09:25:39.556Z,539.5
2019-01-11T09:26:41.984Z,539.3
2019-01-11T09:27:44.416Z,539.3
2019-01-11T09:28:46.872Z,539.3
2019-01-11T09:29:49.310Z,539.3
2019-01-11T09:30:51.755Z,539.6
2019-01-11T09:31:54.182Z,539.6
2019-01-11T09:32:56.339Z,539.1
2019-01-11T09:33:57.946Z,539.3
2019-01-11T09:35:00.378Z,539.1
2019-01-11T09:36:02.804Z,539.1
2019-01-11T09:37:05.236Z,539.1
2019-01-11T09:38:07.783Z,539.6
2019-01-11T09:39:09.946Z,539.7
2019-01-11T09:40:12.092Z,539.1
2019-01-11T09:41:14.268Z,539
2019-01-11T09:42:16.692Z,539.3
2019-01-11T09:43:18.847Z,539.6
2019-01-11T09:44:21.005Z,539.5
2019-01-11T09:45:23.443Z,539.7
2019-01-11T09:46:25.581Z,539.6
2019-01-11T09:47:27.716Z,539.6
2019-01-11T09:48:30.151Z,539.5
2019-01-11T09:49:33.446Z,539.2
2019-01-11T09:50:35.884Z,539.4
2019-01-11T09:51:38.191Z,539.7
2019-01-11T09:52:40.608Z,539.8
2019-01-11T09:53:43.047Z,539.7
2019-01-11T09:54:46.288Z,539.7
2019-01-11T09:55:48.435Z,539.8
2019-01-11T09:56:50.299Z,539.6
2019-01-11T09:57:52.721Z,540.2
2019-01-11T09:58:54.873Z,539.8
2019-01-11T09:59:57.298Z,539.9
2019-01-11T10:01:00.959Z,540.3
2019-01-11T10:02:03.389Z,540.3
2019-01-11T10:03:05.816Z,540.3
2019-01-11T10:04:08.245Z,540.5
2019-01-11T10:05:10.385Z,540.8
2019-01-11T10:06:12.812Z,540.7
2019-01-11T10:07:14.975Z,540.5
2019-01-11T10:08:17.406Z,540.8
2019-01-11T10:09:19.301Z,541
2019-01-11T10:10:21.462Z,540.5
2019-01-11T10:11:23.913Z,541
2019-01-11T10:12:26.070Z,540.4
2019-01-11T10:13:28.531Z,540.4
2019-01-11T10:14:30.949Z,541.1
2019-01-11T10:15:32.835Z,540.6
2019-01-11T10:16:34.996Z,540.7
2019-01-11T10:17:37.438Z,540.8
2019-01-11T10:18:39.890Z,541.2
2019-01-11T10:19:42.324Z,540.9
2019-01-11T10:20:44.485Z,541.4
2019-01-11T10:21:46.915Z,541.4
2019-01-11T10:22:49.048Z,542
2019-01-11T10:23:51.482Z,542.1
2019-01-11T10:24:53.919Z,541.9
2019-01-11T10:25:55.810Z,542.1
2019-01-11T10:26:59.254Z,542.1
2019-01-11T10:28:01.421Z,542
2019-01-11T10:29:03.866Z,542.1
2019-01-11T10:30:06.292Z,542.4
2019-01-11T10:31:08.734Z,542.6
2019-01-11T10:32:11.165Z,542.8
2019-01-11T10:33:13.309Z,542.4
2019-01-11T10:34:15.476Z,542.6
2019-01-11T10:35:17.631Z,542.5
2019-01-11T10:36:19.791Z,542.6
2019-01-11T10:37:21.954Z,542.9
2019-01-11T10:38:24.397Z,543.1
2019-01-11T10:39:26.832Z,543.2
2019-01-11T10:40:29.262Z,542.8
2019-01-11T10:41:31.123Z,543.4
2019-01-11T10:42:33.553Z,543.2
2019-01-11T10:43:35.983Z,543.3
2019-01-11T10:44:38.136Z,543.3
2019-01-11T10:45:40.294Z,543.2
2019-01-11T10:46:48.865Z,543.3
2019-01-11T10:47:49.374Z,543.5
2019-01-11T10:48:51.799Z,543.4
2019-01-11T10:49:53.932Z,543.5
2019-01-11T10:50:56.355Z,543.8
2019-01-11T10:51:58.824Z,543.9
2019-01-11T10:53:00.976Z,544.3
2019-01-11T10:54:02.829Z,544.4
2019-01-11T10:55:05.253Z,544.6
2019-01-11T10:56:07.426Z,544
2019-01-11T10:57:09.582Z,544.3
2019-01-11T10:58:12.039Z,544.2
2019-01-11T10:59:14.471Z,544.1
2019-01-11T11:00:16.905Z,544.4
2019-01-11T11:01:19.086Z,544.7
2019-01-11T11:02:21.542Z,545.5
2019-01-11T11:03:23.985Z,545.2
2019-01-11T11:04:26.155Z,544.9
2019-01-11T11:05:28.593Z,545.2
2019-01-11T11:06:31.016Z,544.9
2019-01-11T11:07:33.441Z,545.1
2019-01-11T11:08:35.865Z,545.2
2019-01-11T11:09:38.014Z,544.8
2019-01-11T11:10:40.447Z,545.5
2019-01-11T11:11:42.603Z,544.8
2019-01-11T11:12:45.034Z,544.8
2019-01-11T11:13:47.203Z,545.1
2019-01-11T11:14:49.641Z,544.9
2019-01-11T11:15:52.069Z,544.8
2019-01-11T11:16:54.501Z,545.2
2019-01-11T11:17:56.926Z,545
2019-01-11T11:18:59.089Z,545.1
2019-01-11T11:20:01.586Z,545.4
2019-01-11T11:21:03.739Z,545.4
2019-01-11T11:22:05.877Z,545.1
2019-01-11T11:23:08.335Z,545
2019-01-11T11:24:10.793Z,545
2019-01-11T11:25:13.221Z,544.7
2019-01-11T11:26:15.654Z,545.2
2019-01-11T11:27:17.543Z,544.8
2019-01-11T11:28:19.983Z,544.9
2019-01-11T11:29:22.400Z,544.8
2019-01-11T11:30:24.821Z,545
2019-01-11T11:31:26.965Z,544.8
2019-01-11T11:32:29.393Z,545.5
2019-01-11T11:33:31.829Z,545.7
2019-01-11T11:34:33.973Z,546.2
2019-01-11T11:35:36.404Z,546.4
2019-01-11T11:36:38.827Z,545.8
2019-01-11T11:37:41.245Z,546.5
2019-01-11T11:38:43.411Z,546.3
2019-01-11T11:39:45.831Z,546.5
2019-01-11T11:40:48.284Z,546.3
2019-01-11T11:41:49.897Z,546.6
2019-01-11T11:42:52.346Z,546.6
2019-01-11T11:43:54.774Z,546.5
2019-01-11T11:44:56.680Z,546.9
2019-01-11T11:45:58.850Z,546.6
2019-01-11T11:47:01.286Z,546.2
2019-01-11T11:48:04.831Z,546.1
2019-01-11T11:49:06.985Z,546.7
2019-01-11T11:50:08.882Z,546.4
2019-01-11T11:51:11.317Z,546.3
2019-01-11T11:52:13.471Z,546.4
2019-01-11T11:53:15.976Z,546.6
2019-01-11T11:54:18.127Z,546.3
2019-01-11T11:55:20.265Z,546.2
2019-01-11T11:56:22.455Z,546.5
2019-01-11T11:57:24.369Z,546
2019-01-11T11:58:26.245Z,546.4
2019-01-11T11:59:28.672Z,546.7
2019-01-11T12:00:30.545Z,546.7
2019-01-11T12:01:32.986Z,546.4
2019-01-11T12:02:35.413Z,547.4
2019-01-11T12:03:37.571Z,546.6
2019-01-11T12:04:39.463Z,547
2019-01-11T12:05:41.917Z,547
2019-01-11T12:06:44.361Z,547.3
2019-01-11T12:07:46.800Z,546.5
2019-01-11T12:08:48.956Z,546.7
2019-01-11T12:09:51.429Z,547.2
2019-01-11T12:10:53.595Z,547.4
2019-01-11T12:11:55.776Z,547.9
2019-01-11T12:12:58.220Z,548.1
2019-01-11T12:14:00.352Z,547.9
2019-01-11T12:15:02.789Z,548
2019-01-11T12:16:05.238Z,547.7
2019-01-11T12:17:07.663Z,547.9
2019-01-11T12:18:09.843Z,547.8
2019-01-11T12:19:11.993Z,547.8
2019-01-11T12:20:13.873Z,547.4
2019-01-11T12:21:16.305Z,547.5
2019-01-11T12:22:18.463Z,548.2
2019-01-11T12:23:20.616Z,548
2019-01-11T12:24:22.489Z,547.7
2019-01-11T12:25:24.916Z,548.1
2019-01-11T12:26:27.367Z,548
2019-01-11T12:27:29.538Z,547.8
2019-01-11T12:28:31.974Z,547.8
2019-01-11T12:29:34.152Z,547.7
2019-01-11T12:30:36.613Z,547.5
2019-01-11T12:31:39.050Z,547.2
2019-01-11T12:32:41.495Z,547.5
2019-01-11T12:33:43.669Z,547.3
2019-01-11T12:34:45.824Z,547.2
2019-01-11T12:35:47.979Z,547.4
2019-01-11T12:36:50.149Z,548
2019-01-11T12:37:52.595Z,547.8
2019-01-11T12:38:55.057Z,548.7
2019-01-11T12:39:57.227Z,547.6
2019-01-11T12:40:59.678Z,548
2019-01-11T12:42:02.119Z,547.3
2019-01-11T12:43:04.044Z,547.4
2019-01-11T12:44:06.473Z,547.8
2019-01-11T12:45:08.636Z,547.8
2019-01-11T12:46:11.077Z,547.9
2019-01-11T12:47:13.233Z,548
2019-01-11T12:48:15.396Z,547.9
2019-01-11T12:49:17.818Z,547.8
2019-01-11T12:50:19.968Z,548.2
2019-01-11T12:51:22.139Z,548.4
2019-01-11T12:52:24.563Z,548.9
2019-01-11T12:53:27.000Z,549.1
2019-01-11T12:54:29.411Z,549.1
2019-01-11T12:55:31.563Z,549.3
2019-01-11T12:56:34.216Z,549.2
2019-01-11T12:57:36.715Z,549.3
2019-01-11T12:58:38.868Z,549.1
2019-01-11T12:59:41.302Z,549.7
2019-01-11T13:00:43.470Z,549.6
2019-01-11T13:01:45.894Z,549.4
2019-01-11T13:02:48.061Z,549.8
2019-01-11T13:03:50.232Z,549.9
2019-01-11T13:04:52.663Z,550.2
2019-01-11T13:05:55.101Z,550.1
2019-01-11T13:06:57.261Z,550
2019-01-11T13:07:59.397Z,550.2
2019-01-11T13:09:01.837Z,549.9
2019-01-11T13:10:03.987Z,550.7
2019-01-11T13:11:06.173Z,550.2
2019-01-11T13:12:08.352Z,550.7
2019-01-11T13:13:10.547Z,551
2019-01-11T13:14:12.984Z,551
2019-01-11T13:15:15.417Z,550.5
2019-01-11T13:16:17.585Z,551.1
2019-01-11T13:17:20.035Z,551.2
2019-01-11T13:18:22.658Z,551.3
2019-01-11T13:19:25.092Z,551.1
2019-01-11T13:20:27.520Z,551.5
2019-01-11T13:21:29.957Z,551.2
2019-01-11T13:22:32.383Z,551.3
2019-01-11T13:23:34.549Z,551.5
2019-01-11T13:24:36.692Z,551.9
2019-01-11T13:25:39.114Z,552
2019-01-11T13:26:41.285Z,551.5
2019-01-11T13:27:43.735Z,551.6
2019-01-11T13:28:46.175Z,551.7
2019-01-11T13:29:48.341Z,551.5
2019-01-11T13:30:50.231Z,551.9
2019-01-11T13:31:52.403Z,551.6
2019-01-11T13:32:54.314Z,551.4